sensor_id;sensor_type;location;lat;lon;timestamp;P1;durP1;ratioP1;P2;durP2;ratioP2
21352;SDS011;10834;52.268;6.770;2023-04-15T00:01:57;7.60;;;4.90;;
21352;SDS011;10834;52.268;6.770;2023-04-15T00:04:45;5.67;;;4.53;;
21352;SDS011;10834;52.268;6.770;2023-04-15T00:07:32;8.97;;;5.23;;
21352;SDS011;10834;52.268;6.770;2023-04-15T00:10:18;7.57;;;5.43;;
21352;SDS011;10834;52.268;6.770;2023-04-15T00:13:04;10.47;;;5.33;;
21352;SDS011;10834;52.268;6.770;2023-04-15T00:15:50;9.27;;;5.90;;
21352;SDS011;10834;52.268;6.770;2023-04-15T00:18:36;7.10;;;5.30;;
21352;SDS011;10834;52.268;6.770;2023-04-15T00:21:23;7.57;;;5.27;;
21352;SDS011;10834;52.268;6.770;2023-04-15T00:24:09;8.87;;;5.37;;
21352;SDS011;10834;52.268;6.770;2023-04-15T00:26:55;5.93;;;5.23;;
21352;SDS011;10834;52.268;6.770;2023-04-15T00:29:41;7.00;;;5.70;;
21352;SDS011;10834;52.268;6.770;2023-04-15T00:32:28;9.90;;;5.57;;
21352;SDS011;10834;52.268;6.770;2023-04-15T00:35:14;10.97;;;5.17;;
21352;SDS011;10834;52.268;6.770;2023-04-15T00:38:01;9.77;;;5.93;;
21352;SDS011;10834;52.268;6.770;2023-04-15T00:40:47;12.13;;;5.77;;
21352;SDS011;10834;52.268;6.770;2023-04-15T00:43:33;7.60;;;5.60;;
21352;SDS011;10834;52.268;6.770;2023-04-15T00:46:19;8.37;;;5.90;;
21352;SDS011;10834;52.268;6.770;2023-04-15T00:49:06;6.93;;;5.50;;
21352;SDS011;10834;52.268;6.770;2023-04-15T00:51:52;9.43;;;5.67;;
21352;SDS011;10834;52.268;6.770;2023-04-15T00:54:39;7.97;;;5.80;;
21352;SDS011;10834;52.268;6.770;2023-04-15T00:57:25;10.33;;;6.30;;
21352;SDS011;10834;52.268;6.770;2023-04-15T01:00:13;10.30;;;5.97;;
21352;SDS011;10834;52.268;6.770;2023-04-15T01:02:59;9.67;;;5.83;;
21352;SDS011;10834;52.268;6.770;2023-04-15T01:05:46;11.30;;;5.80;;
21352;SDS011;10834;52.268;6.770;2023-04-15T01:08:32;9.40;;;6.10;;
21352;SDS011;10834;52.268;6.770;2023-04-15T01:11:18;13.43;;;6.47;;
21352;SDS011;10834;52.268;6.770;2023-04-15T01:14:05;11.87;;;5.47;;
21352;SDS011;10834;52.268;6.770;2023-04-15T01:16:51;9.33;;;5.10;;
21352;SDS011;10834;52.268;6.770;2023-04-15T01:19:38;11.50;;;5.50;;
21352;SDS011;10834;52.268;6.770;2023-04-15T01:22:24;6.80;;;5.43;;
21352;SDS011;10834;52.268;6.770;2023-04-15T01:25:11;9.50;;;5.83;;
21352;SDS011;10834;52.268;6.770;2023-04-15T01:28:04;8.70;;;5.80;;
21352;SDS011;10834;52.268;6.770;2023-04-15T01:31:03;9.03;;;6.07;;
21352;SDS011;10834;52.268;6.770;2023-04-15T01:33:57;9.07;;;5.87;;
21352;SDS011;10834;52.268;6.770;2023-04-15T01:36:44;8.67;;;5.67;;
21352;SDS011;10834;52.268;6.770;2023-04-15T01:39:30;10.83;;;6.10;;
21352;SDS011;10834;52.268;6.770;2023-04-15T01:42:16;9.07;;;5.80;;
21352;SDS011;10834;52.268;6.770;2023-04-15T01:45:03;6.93;;;5.87;;
21352;SDS011;10834;52.268;6.770;2023-04-15T01:47:49;12.17;;;6.13;;
21352;SDS011;10834;52.268;6.770;2023-04-15T01:50:35;10.23;;;5.97;;
21352;SDS011;10834;52.268;6.770;2023-04-15T01:53:25;10.50;;;6.13;;
21352;SDS011;10834;52.268;6.770;2023-04-15T01:56:11;8.20;;;5.77;;
21352;SDS011;10834;52.268;6.770;2023-04-15T01:58:57;11.33;;;6.00;;
21352;SDS011;10834;52.268;6.770;2023-04-15T02:01:43;8.53;;;6.90;;
21352;SDS011;10834;52.268;6.770;2023-04-15T02:04:29;9.33;;;6.40;;
21352;SDS011;10834;52.268;6.770;2023-04-15T02:07:16;8.93;;;6.43;;
21352;SDS011;10834;52.268;6.770;2023-04-15T02:10:02;8.63;;;6.43;;
21352;SDS011;10834;52.268;6.770;2023-04-15T02:12:49;9.83;;;6.50;;
21352;SDS011;10834;52.268;6.770;2023-04-15T02:15:35;12.23;;;6.63;;
21352;SDS011;10834;52.268;6.770;2023-04-15T02:18:21;10.27;;;6.53;;
21352;SDS011;10834;52.268;6.770;2023-04-15T02:21:07;11.70;;;7.27;;
21352;SDS011;10834;52.268;6.770;2023-04-15T02:23:53;11.40;;;6.93;;
21352;SDS011;10834;52.268;6.770;2023-04-15T02:26:39;8.90;;;6.23;;
21352;SDS011;10834;52.268;6.770;2023-04-15T02:29:25;10.03;;;6.27;;
21352;SDS011;10834;52.268;6.770;2023-04-15T02:32:11;10.33;;;6.57;;
21352;SDS011;10834;52.268;6.770;2023-04-15T02:35:04;11.03;;;6.50;;
21352;SDS011;10834;52.268;6.770;2023-04-15T02:37:52;8.60;;;6.30;;
21352;SDS011;10834;52.268;6.770;2023-04-15T02:40:38;9.03;;;6.53;;
21352;SDS011;10834;52.268;6.770;2023-04-15T02:43:24;9.37;;;6.30;;
21352;SDS011;10834;52.268;6.770;2023-04-15T02:46:10;9.30;;;6.57;;
21352;SDS011;10834;52.268;6.770;2023-04-15T02:48:58;11.67;;;7.23;;
21352;SDS011;10834;52.268;6.770;2023-04-15T02:51:45;12.57;;;6.13;;
21352;SDS011;10834;52.268;6.770;2023-04-15T02:54:34;10.43;;;7.23;;
21352;SDS011;10834;52.268;6.770;2023-04-15T02:57:20;8.83;;;6.37;;
21352;SDS011;10834;52.268;6.770;2023-04-15T03:00:06;12.20;;;6.63;;
21352;SDS011;10834;52.268;6.770;2023-04-15T03:02:58;10.70;;;6.63;;
21352;SDS011;10834;52.268;6.770;2023-04-15T03:05:47;9.67;;;6.37;;
21352;SDS011;10834;52.268;6.770;2023-04-15T03:08:33;10.27;;;6.73;;
21352;SDS011;10834;52.268;6.770;2023-04-15T03:11:20;8.57;;;6.17;;
21352;SDS011;10834;52.268;6.770;2023-04-15T03:14:06;10.73;;;7.17;;
21352;SDS011;10834;52.268;6.770;2023-04-15T03:16:52;8.40;;;6.60;;
21352;SDS011;10834;52.268;6.770;2023-04-15T03:19:38;10.37;;;7.10;;
21352;SDS011;10834;52.268;6.770;2023-04-15T03:22:24;10.70;;;6.73;;
21352;SDS011;10834;52.268;6.770;2023-04-15T03:25:10;16.67;;;7.10;;
21352;SDS011;10834;52.268;6.770;2023-04-15T03:27:56;9.27;;;6.60;;
21352;SDS011;10834;52.268;6.770;2023-04-15T03:30:44;11.67;;;7.13;;
21352;SDS011;10834;52.268;6.770;2023-04-15T03:33:30;12.20;;;7.47;;
21352;SDS011;10834;52.268;6.770;2023-04-15T03:36:16;11.60;;;8.10;;
21352;SDS011;10834;52.268;6.770;2023-04-15T03:39:02;9.50;;;7.17;;
21352;SDS011;10834;52.268;6.770;2023-04-15T03:41:48;12.47;;;8.80;;
21352;SDS011;10834;52.268;6.770;2023-04-15T03:44:34;12.70;;;8.23;;
21352;SDS011;10834;52.268;6.770;2023-04-15T03:47:21;10.70;;;8.33;;
21352;SDS011;10834;52.268;6.770;2023-04-15T03:50:07;12.60;;;8.03;;
21352;SDS011;10834;52.268;6.770;2023-04-15T03:52:54;11.93;;;8.17;;
21352;SDS011;10834;52.268;6.770;2023-04-15T03:55:40;11.23;;;8.37;;
21352;SDS011;10834;52.268;6.770;2023-04-15T03:58:26;14.33;;;9.30;;
21352;SDS011;10834;52.268;6.770;2023-04-15T04:01:12;10.10;;;7.77;;
21352;SDS011;10834;52.268;6.770;2023-04-15T04:03:58;15.83;;;9.30;;
21352;SDS011;10834;52.268;6.770;2023-04-15T04:06:44;12.03;;;9.57;;
21352;SDS011;10834;52.268;6.770;2023-04-15T04:09:30;16.67;;;9.80;;
21352;SDS011;10834;52.268;6.770;2023-04-15T04:12:17;16.13;;;9.37;;
21352;SDS011;10834;52.268;6.770;2023-04-15T04:15:04;16.17;;;10.50;;
21352;SDS011;10834;52.268;6.770;2023-04-15T04:17:51;18.10;;;9.67;;
21352;SDS011;10834;52.268;6.770;2023-04-15T04:20:37;14.70;;;9.17;;
21352;SDS011;10834;52.268;6.770;2023-04-15T04:23:23;13.40;;;10.30;;
21352;SDS011;10834;52.268;6.770;2023-04-15T04:26:09;13.53;;;9.67;;
21352;SDS011;10834;52.268;6.770;2023-04-15T04:28:55;16.93;;;10.53;;
21352;SDS011;10834;52.268;6.770;2023-04-15T04:31:41;14.53;;;11.00;;
21352;SDS011;10834;52.268;6.770;2023-04-15T04:34:28;14.70;;;10.00;;
21352;SDS011;10834;52.268;6.770;2023-04-15T04:37:14;15.43;;;11.57;;
21352;SDS011;10834;52.268;6.770;2023-04-15T04:40:00;14.93;;;9.77;;
21352;SDS011;10834;52.268;6.770;2023-04-15T04:42:46;16.17;;;9.83;;
21352;SDS011;10834;52.268;6.770;2023-04-15T04:45:32;14.50;;;10.00;;
21352;SDS011;10834;52.268;6.770;2023-04-15T04:48:18;12.10;;;9.27;;
21352;SDS011;10834;52.268;6.770;2023-04-15T04:51:04;14.13;;;9.73;;
21352;SDS011;10834;52.268;6.770;2023-04-15T04:53:50;14.57;;;10.30;;
21352;SDS011;10834;52.268;6.770;2023-04-15T04:56:36;16.67;;;11.53;;
21352;SDS011;10834;52.268;6.770;2023-04-15T04:59:24;15.70;;;10.70;;
21352;SDS011;10834;52.268;6.770;2023-04-15T05:02:10;14.67;;;10.53;;
21352;SDS011;10834;52.268;6.770;2023-04-15T05:04:56;15.93;;;10.50;;
21352;SDS011;10834;52.268;6.770;2023-04-15T05:07:42;13.73;;;10.37;;
21352;SDS011;10834;52.268;6.770;2023-04-15T05:10:28;19.73;;;11.50;;
21352;SDS011;10834;52.268;6.770;2023-04-15T05:13:14;14.23;;;10.13;;
21352;SDS011;10834;52.268;6.770;2023-04-15T05:16:00;14.73;;;10.93;;
21352;SDS011;10834;52.268;6.770;2023-04-15T05:18:46;17.73;;;11.83;;
21352;SDS011;10834;52.268;6.770;2023-04-15T05:21:32;18.33;;;10.93;;
21352;SDS011;10834;52.268;6.770;2023-04-15T05:24:18;15.80;;;10.53;;
21352;SDS011;10834;52.268;6.770;2023-04-15T05:27:04;16.57;;;11.03;;
21352;SDS011;10834;52.268;6.770;2023-04-15T05:29:50;15.87;;;11.00;;
21352;SDS011;10834;52.268;6.770;2023-04-15T05:32:36;15.30;;;11.07;;
21352;SDS011;10834;52.268;6.770;2023-04-15T05:35:22;17.40;;;11.00;;
21352;SDS011;10834;52.268;6.770;2023-04-15T05:38:09;15.17;;;10.90;;
21352;SDS011;10834;52.268;6.770;2023-04-15T05:40:55;15.13;;;10.90;;
21352;SDS011;10834;52.268;6.770;2023-04-15T05:43:41;18.07;;;11.83;;
21352;SDS011;10834;52.268;6.770;2023-04-15T05:46:27;16.53;;;11.33;;
21352;SDS011;10834;52.268;6.770;2023-04-15T05:49:13;15.93;;;12.13;;
21352;SDS011;10834;52.268;6.770;2023-04-15T05:51:59;15.40;;;10.80;;
21352;SDS011;10834;52.268;6.770;2023-04-15T05:54:45;14.97;;;11.50;;
21352;SDS011;10834;52.268;6.770;2023-04-15T05:57:31;18.57;;;11.47;;
21352;SDS011;10834;52.268;6.770;2023-04-15T06:00:17;17.30;;;11.93;;
21352;SDS011;10834;52.268;6.770;2023-04-15T06:03:03;17.33;;;12.73;;
21352;SDS011;10834;52.268;6.770;2023-04-15T06:05:50;17.63;;;13.17;;
21352;SDS011;10834;52.268;6.770;2023-04-15T06:08:36;17.10;;;12.47;;
21352;SDS011;10834;52.268;6.770;2023-04-15T06:11:22;20.03;;;13.13;;
21352;SDS011;10834;52.268;6.770;2023-04-15T06:14:09;18.37;;;12.63;;
21352;SDS011;10834;52.268;6.770;2023-04-15T06:16:55;14.77;;;12.03;;
21352;SDS011;10834;52.268;6.770;2023-04-15T06:19:41;16.80;;;12.57;;
21352;SDS011;10834;52.268;6.770;2023-04-15T06:22:27;15.87;;;11.07;;
21352;SDS011;10834;52.268;6.770;2023-04-15T06:25:13;18.97;;;11.87;;
21352;SDS011;10834;52.268;6.770;2023-04-15T06:27:59;17.27;;;11.13;;
21352;SDS011;10834;52.268;6.770;2023-04-15T06:30:45;17.90;;;11.13;;
21352;SDS011;10834;52.268;6.770;2023-04-15T06:33:31;15.20;;;10.93;;
21352;SDS011;10834;52.268;6.770;2023-04-15T06:36:18;15.37;;;11.07;;
21352;SDS011;10834;52.268;6.770;2023-04-15T06:39:04;14.87;;;10.33;;
21352;SDS011;10834;52.268;6.770;2023-04-15T06:41:50;13.93;;;9.20;;
21352;SDS011;10834;52.268;6.770;2023-04-15T06:44:36;12.47;;;9.70;;
21352;SDS011;10834;52.268;6.770;2023-04-15T06:47:22;19.37;;;10.07;;
21352;SDS011;10834;52.268;6.770;2023-04-15T06:50:08;13.70;;;8.63;;
21352;SDS011;10834;52.268;6.770;2023-04-15T06:52:55;12.33;;;8.73;;
21352;SDS011;10834;52.268;6.770;2023-04-15T06:55:41;15.73;;;9.73;;
21352;SDS011;10834;52.268;6.770;2023-04-15T06:58:27;14.33;;;9.43;;
21352;SDS011;10834;52.268;6.770;2023-04-15T07:01:13;14.17;;;10.23;;
21352;SDS011;10834;52.268;6.770;2023-04-15T07:04:00;13.83;;;9.03;;
21352;SDS011;10834;52.268;6.770;2023-04-15T07:06:46;13.87;;;9.67;;
21352;SDS011;10834;52.268;6.770;2023-04-15T07:09:32;11.47;;;8.50;;
21352;SDS011;10834;52.268;6.770;2023-04-15T07:12:18;12.87;;;8.40;;
21352;SDS011;10834;52.268;6.770;2023-04-15T07:15:05;11.00;;;9.07;;
21352;SDS011;10834;52.268;6.770;2023-04-15T07:17:51;14.73;;;9.23;;
21352;SDS011;10834;52.268;6.770;2023-04-15T07:20:37;11.87;;;8.63;;
21352;SDS011;10834;52.268;6.770;2023-04-15T07:23:24;10.97;;;8.00;;
21352;SDS011;10834;52.268;6.770;2023-04-15T07:26:10;8.80;;;7.73;;
21352;SDS011;10834;52.268;6.770;2023-04-15T07:28:56;13.17;;;8.80;;
21352;SDS011;10834;52.268;6.770;2023-04-15T07:31:42;11.30;;;8.43;;
21352;SDS011;10834;52.268;6.770;2023-04-15T07:34:28;12.27;;;8.83;;
21352;SDS011;10834;52.268;6.770;2023-04-15T07:37:14;14.33;;;8.07;;
21352;SDS011;10834;52.268;6.770;2023-04-15T07:40:01;13.80;;;9.07;;
21352;SDS011;10834;52.268;6.770;2023-04-15T07:42:49;10.77;;;8.63;;
21352;SDS011;10834;52.268;6.770;2023-04-15T07:45:35;13.10;;;8.63;;
21352;SDS011;10834;52.268;6.770;2023-04-15T07:48:21;13.83;;;9.97;;
21352;SDS011;10834;52.268;6.770;2023-04-15T07:51:07;13.30;;;9.40;;
21352;SDS011;10834;52.268;6.770;2023-04-15T07:53:55;12.43;;;8.33;;
21352;SDS011;10834;52.268;6.770;2023-04-15T07:56:41;12.03;;;8.57;;
21352;SDS011;10834;52.268;6.770;2023-04-15T07:59:27;10.03;;;8.00;;
21352;SDS011;10834;52.268;6.770;2023-04-15T08:02:14;10.67;;;7.83;;
21352;SDS011;10834;52.268;6.770;2023-04-15T08:05:00;10.93;;;8.83;;
21352;SDS011;10834;52.268;6.770;2023-04-15T08:07:47;10.37;;;8.50;;
21352;SDS011;10834;52.268;6.770;2023-04-15T08:10:33;10.63;;;8.27;;
21352;SDS011;10834;52.268;6.770;2023-04-15T08:13:20;9.63;;;7.90;;
21352;SDS011;10834;52.268;6.770;2023-04-15T08:16:39;11.67;;;9.03;;
21352;SDS011;10834;52.268;6.770;2023-04-15T08:19:18;10.50;;;8.17;;
21352;SDS011;10834;52.268;6.770;2023-04-15T08:22:06;11.20;;;7.53;;
21352;SDS011;10834;52.268;6.770;2023-04-15T08:24:52;12.53;;;9.30;;
21352;SDS011;10834;52.268;6.770;2023-04-15T08:27:38;10.37;;;8.20;;
21352;SDS011;10834;52.268;6.770;2023-04-15T08:30:25;10.00;;;7.90;;
21352;SDS011;10834;52.268;6.770;2023-04-15T08:33:11;9.93;;;7.47;;
21352;SDS011;10834;52.268;6.770;2023-04-15T08:35:57;9.97;;;7.13;;
21352;SDS011;10834;52.268;6.770;2023-04-15T08:38:43;7.90;;;5.90;;
21352;SDS011;10834;52.268;6.770;2023-04-15T08:41:39;7.63;;;5.07;;
21352;SDS011;10834;52.268;6.770;2023-04-15T08:44:33;7.67;;;5.87;;
21352;SDS011;10834;52.268;6.770;2023-04-15T08:47:21;8.47;;;5.67;;
21352;SDS011;10834;52.268;6.770;2023-04-15T08:50:11;7.03;;;5.57;;
21352;SDS011;10834;52.268;6.770;2023-04-15T08:52:59;7.23;;;5.77;;
21352;SDS011;10834;52.268;6.770;2023-04-15T08:55:49;5.70;;;4.93;;
21352;SDS011;10834;52.268;6.770;2023-04-15T08:58:37;7.77;;;5.63;;
21352;SDS011;10834;52.268;6.770;2023-04-15T09:01:23;5.67;;;4.53;;
21352;SDS011;10834;52.268;6.770;2023-04-15T09:04:10;6.37;;;5.43;;
21352;SDS011;10834;52.268;6.770;2023-04-15T09:06:56;6.43;;;5.07;;
21352;SDS011;10834;52.268;6.770;2023-04-15T09:09:42;6.03;;;4.97;;
21352;SDS011;10834;52.268;6.770;2023-04-15T09:12:29;4.47;;;4.07;;
21352;SDS011;10834;52.268;6.770;2023-04-15T09:15:15;7.67;;;4.40;;
21352;SDS011;10834;52.268;6.770;2023-04-15T09:18:02;5.23;;;3.73;;
21352;SDS011;10834;52.268;6.770;2023-04-15T09:20:48;5.00;;;4.20;;
21352;SDS011;10834;52.268;6.770;2023-04-15T09:23:39;4.87;;;3.97;;
21352;SDS011;10834;52.268;6.770;2023-04-15T09:26:29;4.20;;;3.80;;
21352;SDS011;10834;52.268;6.770;2023-04-15T09:29:19;6.63;;;3.93;;
21352;SDS011;10834;52.268;6.770;2023-04-15T09:32:09;5.53;;;4.43;;
21352;SDS011;10834;52.268;6.770;2023-04-15T09:35:05;5.47;;;4.10;;
21352;SDS011;10834;52.268;6.770;2023-04-15T09:38:03;5.90;;;3.40;;
21352;SDS011;10834;52.268;6.770;2023-04-15T09:40:54;5.50;;;3.93;;
21352;SDS011;10834;52.268;6.770;2023-04-15T09:43:40;4.07;;;3.57;;
21352;SDS011;10834;52.268;6.770;2023-04-15T09:46:42;5.30;;;3.53;;
21352;SDS011;10834;52.268;6.770;2023-04-15T09:49:29;4.33;;;3.60;;
21352;SDS011;10834;52.268;6.770;2023-04-15T09:52:15;6.17;;;4.30;;
21352;SDS011;10834;52.268;6.770;2023-04-15T09:55:01;5.60;;;4.43;;
21352;SDS011;10834;52.268;6.770;2023-04-15T09:57:47;4.70;;;4.20;;
21352;SDS011;10834;52.268;6.770;2023-04-15T10:00:34;7.47;;;4.57;;
21352;SDS011;10834;52.268;6.770;2023-04-15T10:03:38;8.17;;;4.37;;
21352;SDS011;10834;52.268;6.770;2023-04-15T10:06:26;5.83;;;4.10;;
21352;SDS011;10834;52.268;6.770;2023-04-15T10:09:12;5.17;;;3.23;;
21352;SDS011;10834;52.268;6.770;2023-04-15T10:11:58;6.10;;;3.97;;
21352;SDS011;10834;52.268;6.770;2023-04-15T10:14:47;5.80;;;4.13;;
21352;SDS011;10834;52.268;6.770;2023-04-15T10:17:37;5.60;;;3.03;;
21352;SDS011;10834;52.268;6.770;2023-04-15T10:20:26;3.30;;;2.87;;
21352;SDS011;10834;52.268;6.770;2023-04-15T10:23:14;4.53;;;3.03;;
21352;SDS011;10834;52.268;6.770;2023-04-15T10:26:03;5.00;;;2.73;;
21352;SDS011;10834;52.268;6.770;2023-04-15T10:28:49;5.30;;;2.80;;
21352;SDS011;10834;52.268;6.770;2023-04-15T10:31:38;3.87;;;2.90;;
21352;SDS011;10834;52.268;6.770;2023-04-15T10:34:25;4.43;;;3.20;;
21352;SDS011;10834;52.268;6.770;2023-04-15T10:37:12;3.93;;;3.10;;
21352;SDS011;10834;52.268;6.770;2023-04-15T10:40:22;4.30;;;2.87;;
21352;SDS011;10834;52.268;6.770;2023-04-15T10:43:25;3.53;;;2.63;;
21352;SDS011;10834;52.268;6.770;2023-04-15T10:46:11;4.40;;;2.70;;
21352;SDS011;10834;52.268;6.770;2023-04-15T10:48:57;2.90;;;2.07;;
21352;SDS011;10834;52.268;6.770;2023-04-15T10:51:52;4.70;;;2.43;;
21352;SDS011;10834;52.268;6.770;2023-04-15T10:54:42;2.80;;;2.13;;
21352;SDS011;10834;52.268;6.770;2023-04-15T10:57:38;4.50;;;2.20;;
21352;SDS011;10834;52.268;6.770;2023-04-15T11:00:26;3.50;;;2.83;;
21352;SDS011;10834;52.268;6.770;2023-04-15T11:03:13;3.90;;;2.83;;
21352;SDS011;10834;52.268;6.770;2023-04-15T11:06:00;3.37;;;2.80;;
21352;SDS011;10834;52.268;6.770;2023-04-15T11:08:53;7.00;;;2.70;;
21352;SDS011;10834;52.268;6.770;2023-04-15T11:12:03;3.77;;;2.53;;
21352;SDS011;10834;52.268;6.770;2023-04-15T11:14:50;4.57;;;2.83;;
21352;SDS011;10834;52.268;6.770;2023-04-15T11:17:36;3.90;;;2.53;;
21352;SDS011;10834;52.268;6.770;2023-04-15T11:20:22;4.60;;;2.83;;
21352;SDS011;10834;52.268;6.770;2023-04-15T11:23:08;3.00;;;2.13;;
21352;SDS011;10834;52.268;6.770;2023-04-15T11:25:55;5.33;;;2.77;;
21352;SDS011;10834;52.268;6.770;2023-04-15T11:28:44;3.87;;;2.80;;
21352;SDS011;10834;52.268;6.770;2023-04-15T11:31:31;5.50;;;2.57;;
21352;SDS011;10834;52.268;6.770;2023-04-15T11:34:21;2.87;;;2.57;;
21352;SDS011;10834;52.268;6.770;2023-04-15T11:37:08;2.57;;;2.23;;
21352;SDS011;10834;52.268;6.770;2023-04-15T11:39:54;2.97;;;2.20;;
21352;SDS011;10834;52.268;6.770;2023-04-15T11:42:40;2.83;;;2.10;;
21352;SDS011;10834;52.268;6.770;2023-04-15T11:45:26;4.77;;;2.47;;
21352;SDS011;10834;52.268;6.770;2023-04-15T11:48:12;2.67;;;2.33;;
21352;SDS011;10834;52.268;6.770;2023-04-15T11:56:31;2.97;;;2.53;;
21352;SDS011;10834;52.268;6.770;2023-04-15T11:59:17;3.33;;;2.30;;
21352;SDS011;10834;52.268;6.770;2023-04-15T12:02:10;3.07;;;2.20;;
21352;SDS011;10834;52.268;6.770;2023-04-15T12:05:04;2.27;;;2.07;;
21352;SDS011;10834;52.268;6.770;2023-04-15T12:07:57;4.43;;;2.10;;
21352;SDS011;10834;52.268;6.770;2023-04-15T12:10:44;2.40;;;2.20;;
21352;SDS011;10834;52.268;6.770;2023-04-15T12:13:30;3.03;;;2.17;;
21352;SDS011;10834;52.268;6.770;2023-04-15T12:16:16;2.80;;;1.90;;
21352;SDS011;10834;52.268;6.770;2023-04-15T12:19:08;5.67;;;2.30;;
21352;SDS011;10834;52.268;6.770;2023-04-15T12:22:00;1.70;;;1.60;;
21352;SDS011;10834;52.268;6.770;2023-04-15T12:24:47;3.00;;;1.70;;
21352;SDS011;10834;52.268;6.770;2023-04-15T12:27:41;4.53;;;2.00;;
21352;SDS011;10834;52.268;6.770;2023-04-15T12:30:36;2.53;;;2.03;;
21352;SDS011;10834;52.268;6.770;2023-04-15T12:33:34;3.57;;;2.23;;
21352;SDS011;10834;52.268;6.770;2023-04-15T12:36:20;2.67;;;2.03;;
21352;SDS011;10834;52.268;6.770;2023-04-15T12:39:07;3.27;;;2.07;;
21352;SDS011;10834;52.268;6.770;2023-04-15T12:41:53;4.27;;;2.30;;
21352;SDS011;10834;52.268;6.770;2023-04-15T12:44:39;3.37;;;2.60;;
21352;SDS011;10834;52.268;6.770;2023-04-15T12:47:25;4.70;;;2.53;;
21352;SDS011;10834;52.268;6.770;2023-04-15T12:50:11;3.47;;;2.70;;
21352;SDS011;10834;52.268;6.770;2023-04-15T12:52:57;2.73;;;2.47;;
21352;SDS011;10834;52.268;6.770;2023-04-15T12:55:43;4.57;;;2.33;;
21352;SDS011;10834;52.268;6.770;2023-04-15T12:58:29;3.10;;;2.37;;
21352;SDS011;10834;52.268;6.770;2023-04-15T13:01:16;2.87;;;1.87;;
21352;SDS011;10834;52.268;6.770;2023-04-15T13:04:02;3.43;;;2.00;;
21352;SDS011;10834;52.268;6.770;2023-04-15T13:06:48;2.53;;;1.97;;
21352;SDS011;10834;52.268;6.770;2023-04-15T13:09:34;3.67;;;3.17;;
21352;SDS011;10834;52.268;6.770;2023-04-15T13:12:20;6.30;;;2.40;;
21352;SDS011;10834;52.268;6.770;2023-04-15T13:15:06;1.90;;;1.73;;
21352;SDS011;10834;52.268;6.770;2023-04-15T13:17:55;2.70;;;2.17;;
21352;SDS011;10834;52.268;6.770;2023-04-15T13:20:41;7.50;;;3.43;;
21352;SDS011;10834;52.268;6.770;2023-04-15T13:23:27;4.63;;;2.60;;
21352;SDS011;10834;52.268;6.770;2023-04-15T13:26:14;2.10;;;1.80;;
21352;SDS011;10834;52.268;6.770;2023-04-15T13:29:00;2.93;;;2.27;;
21352;SDS011;10834;52.268;6.770;2023-04-15T13:31:46;4.23;;;2.40;;
21352;SDS011;10834;52.268;6.770;2023-04-15T13:34:32;2.73;;;2.30;;
21352;SDS011;10834;52.268;6.770;2023-04-15T13:37:18;4.63;;;2.53;;
21352;SDS011;10834;52.268;6.770;2023-04-15T13:40:05;4.13;;;1.90;;
21352;SDS011;10834;52.268;6.770;2023-04-15T13:42:52;1.93;;;1.80;;
21352;SDS011;10834;52.268;6.770;2023-04-15T13:45:38;2.93;;;2.40;;
21352;SDS011;10834;52.268;6.770;2023-04-15T13:48:24;3.70;;;2.23;;
21352;SDS011;10834;52.268;6.770;2023-04-15T13:51:10;6.47;;;2.53;;
21352;SDS011;10834;52.268;6.770;2023-04-15T13:53:56;6.50;;;2.17;;
21352;SDS011;10834;52.268;6.770;2023-04-15T13:56:42;8.87;;;2.47;;
21352;SDS011;10834;52.268;6.770;2023-04-15T13:59:28;6.67;;;2.23;;
21352;SDS011;10834;52.268;6.770;2023-04-15T14:02:14;3.13;;;2.43;;
21352;SDS011;10834;52.268;6.770;2023-04-15T14:05:00;3.83;;;2.63;;
21352;SDS011;10834;52.268;6.770;2023-04-15T14:07:46;2.90;;;2.03;;
21352;SDS011;10834;52.268;6.770;2023-04-15T14:10:32;4.53;;;2.13;;
21352;SDS011;10834;52.268;6.770;2023-04-15T14:13:18;5.07;;;2.23;;
21352;SDS011;10834;52.268;6.770;2023-04-15T14:16:04;3.47;;;2.10;;
21352;SDS011;10834;52.268;6.770;2023-04-15T14:18:50;5.97;;;2.53;;
21352;SDS011;10834;52.268;6.770;2023-04-15T14:21:36;4.33;;;1.90;;
21352;SDS011;10834;52.268;6.770;2023-04-15T14:24:23;4.67;;;2.00;;
21352;SDS011;10834;52.268;6.770;2023-04-15T14:27:09;4.30;;;2.43;;
21352;SDS011;10834;52.268;6.770;2023-04-15T14:29:56;4.07;;;2.33;;
21352;SDS011;10834;52.268;6.770;2023-04-15T14:32:43;4.83;;;2.93;;
21352;SDS011;10834;52.268;6.770;2023-04-15T14:35:29;7.20;;;2.73;;
21352;SDS011;10834;52.268;6.770;2023-04-15T14:38:15;3.23;;;1.40;;
21352;SDS011;10834;52.268;6.770;2023-04-15T14:41:01;5.03;;;1.90;;
21352;SDS011;10834;52.268;6.770;2023-04-15T14:43:47;3.67;;;1.83;;
21352;SDS011;10834;52.268;6.770;2023-04-15T14:46:34;3.50;;;1.73;;
21352;SDS011;10834;52.268;6.770;2023-04-15T14:49:20;6.37;;;2.13;;
21352;SDS011;10834;52.268;6.770;2023-04-15T14:52:07;6.80;;;1.53;;
21352;SDS011;10834;52.268;6.770;2023-04-15T14:54:53;5.37;;;2.00;;
21352;SDS011;10834;52.268;6.770;2023-04-15T14:57:39;2.97;;;1.50;;
21352;SDS011;10834;52.268;6.770;2023-04-15T15:00:26;8.65;;;2.40;;
21352;SDS011;10834;52.268;6.770;2023-04-15T15:03:12;3.17;;;1.63;;
21352;SDS011;10834;52.268;6.770;2023-04-15T15:05:59;5.77;;;2.00;;
21352;SDS011;10834;52.268;6.770;2023-04-15T15:08:45;2.60;;;1.50;;
21352;SDS011;10834;52.268;6.770;2023-04-15T15:11:31;3.63;;;1.93;;
21352;SDS011;10834;52.268;6.770;2023-04-15T15:14:17;5.10;;;2.57;;
21352;SDS011;10834;52.268;6.770;2023-04-15T15:17:03;2.63;;;1.90;;
21352;SDS011;10834;52.268;6.770;2023-04-15T15:19:49;8.20;;;2.50;;
21352;SDS011;10834;52.268;6.770;2023-04-15T15:22:36;4.33;;;1.70;;
21352;SDS011;10834;52.268;6.770;2023-04-15T15:25:22;6.30;;;2.10;;
21352;SDS011;10834;52.268;6.770;2023-04-15T15:28:08;4.93;;;1.80;;
21352;SDS011;10834;52.268;6.770;2023-04-15T15:30:54;8.87;;;5.47;;
21352;SDS011;10834;52.268;6.770;2023-04-15T15:33:40;4.87;;;4.10;;
21352;SDS011;10834;52.268;6.770;2023-04-15T15:36:26;10.27;;;6.77;;
21352;SDS011;10834;52.268;6.770;2023-04-15T15:39:14;5.43;;;2.43;;
21352;SDS011;10834;52.268;6.770;2023-04-15T15:42:00;14.53;;;9.93;;
21352;SDS011;10834;52.268;6.770;2023-04-15T15:44:46;8.97;;;6.70;;
21352;SDS011;10834;52.268;6.770;2023-04-15T15:47:33;5.53;;;4.17;;
21352;SDS011;10834;52.268;6.770;2023-04-15T15:50:19;3.13;;;2.13;;
21352;SDS011;10834;52.268;6.770;2023-04-15T15:53:05;6.00;;;2.00;;
21352;SDS011;10834;52.268;6.770;2023-04-15T15:55:52;3.50;;;1.90;;
21352;SDS011;10834;52.268;6.770;2023-04-15T15:58:38;5.73;;;2.40;;
21352;SDS011;10834;52.268;6.770;2023-04-15T16:01:24;5.03;;;2.37;;
21352;SDS011;10834;52.268;6.770;2023-04-15T16:04:10;5.33;;;1.93;;
21352;SDS011;10834;52.268;6.770;2023-04-15T16:06:56;5.97;;;1.73;;
21352;SDS011;10834;52.268;6.770;2023-04-15T16:09:42;5.80;;;2.10;;
21352;SDS011;10834;52.268;6.770;2023-04-15T16:12:28;5.47;;;3.03;;
21352;SDS011;10834;52.268;6.770;2023-04-15T16:15:14;7.23;;;2.73;;
21352;SDS011;10834;52.268;6.770;2023-04-15T16:18:00;2.83;;;1.80;;
21352;SDS011;10834;52.268;6.770;2023-04-15T16:20:46;6.63;;;2.40;;
21352;SDS011;10834;52.268;6.770;2023-04-15T16:23:32;5.00;;;1.80;;
21352;SDS011;10834;52.268;6.770;2023-04-15T16:26:18;4.60;;;3.17;;
21352;SDS011;10834;52.268;6.770;2023-04-15T16:29:04;6.03;;;1.83;;
21352;SDS011;10834;52.268;6.770;2023-04-15T16:31:50;3.87;;;1.70;;
21352;SDS011;10834;52.268;6.770;2023-04-15T16:34:36;6.80;;;2.50;;
21352;SDS011;10834;52.268;6.770;2023-04-15T16:37:25;5.17;;;2.10;;
21352;SDS011;10834;52.268;6.770;2023-04-15T16:40:11;5.80;;;2.43;;
21352;SDS011;10834;52.268;6.770;2023-04-15T16:42:57;6.70;;;2.73;;
21352;SDS011;10834;52.268;6.770;2023-04-15T16:45:43;4.67;;;2.13;;